createdAt,value
2018-11-25T00:00:48.910Z,12.23
2018-11-25T00:05:58.357Z,13.03
2018-11-25T00:11:07.693Z,10.77
2018-11-25T00:16:17.047Z,11.37
2018-11-25T00:21:26.451Z,12.00
2018-11-25T00:26:36.138Z,11.43
2018-11-25T00:31:45.784Z,13.33
2018-11-25T00:36:55.114Z,13.77
2018-11-25T00:42:04.620Z,14.13
2018-11-25T00:47:13.965Z,14.83
2018-11-25T00:52:23.391Z,15.37
2018-11-25T00:57:32.888Z,17.90
2018-11-25T01:02:42.268Z,14.97
2018-11-25T01:07:51.852Z,16.93
2018-11-25T01:13:01.241Z,18.47
2018-11-25T01:18:10.584Z,18.37
2018-11-25T01:23:20.089Z,19.33
2018-11-25T01:28:29.447Z,19.00
2018-11-25T01:33:38.756Z,18.50
2018-11-25T01:38:48.178Z,18.33
2018-11-25T01:43:57.552Z,19.33
2018-11-25T01:49:06.900Z,18.97
2018-11-25T01:54:16.504Z,17.97
2018-11-25T01:59:25.808Z,18.57
2018-11-25T02:04:35.261Z,19.73
2018-11-25T02:09:44.636Z,18.53
2018-11-25T02:14:54.255Z,21.17
2018-11-25T02:20:08.236Z,19.07
2018-11-25T02:25:17.777Z,16.87
2018-11-25T02:30:27.169Z,18.50
2018-11-25T02:35:36.521Z,16.00
2018-11-25T02:40:46.059Z,17.40
2018-11-25T02:45:55.384Z,16.87
2018-11-25T02:51:04.723Z,16.37
2018-11-25T02:56:14.216Z,16.30
2018-11-25T03:01:23.569Z,16.57
2018-11-25T03:06:32.945Z,18.03
2018-11-25T03:11:42.338Z,16.97
2018-11-25T03:16:51.882Z,16.80
2018-11-25T03:22:01.253Z,17.60
2018-11-25T03:27:10.626Z,18.40
2018-11-25T03:32:20.217Z,18.23
2018-11-25T03:37:29.594Z,17.83
2018-11-25T03:42:39.222Z,19.27
2018-11-25T03:47:48.806Z,17.13
2018-11-25T03:52:58.440Z,18.37
2018-11-25T03:58:07.796Z,18.37
2018-11-25T04:03:17.317Z,17.67
2018-11-25T04:08:26.917Z,18.73
2018-11-25T04:13:36.229Z,18.87
2018-11-25T04:18:45.567Z,19.33
2018-11-25T04:23:54.974Z,17.43
2018-11-25T04:29:04.681Z,17.47
2018-11-25T04:34:14.116Z,17.30
2018-11-25T04:39:23.746Z,17.77
2018-11-25T04:44:33.084Z,17.50
2018-11-25T04:49:42.409Z,18.83
2018-11-25T04:54:51.765Z,18.60
2018-11-25T05:00:01.097Z,17.97
2018-11-25T05:05:11.747Z,18.40
2018-11-25T05:10:21.232Z,16.90
2018-11-25T05:15:30.558Z,17.30
2018-11-25T05:20:39.924Z,18.37
2018-11-25T05:25:49.293Z,17.13
2018-11-25T05:30:58.628Z,18.33
2018-11-25T05:36:07.994Z,18.20
2018-11-25T05:41:17.420Z,19.87
2018-11-25T05:46:26.784Z,21.87
2018-11-25T05:51:36.136Z,19.40
2018-11-25T05:56:45.554Z,17.97
2018-11-25T06:01:55.198Z,18.23
2018-11-25T06:07:04.857Z,17.57
2018-11-25T06:12:14.225Z,16.83
2018-11-25T06:17:23.752Z,16.50
2018-11-25T06:22:33.171Z,16.20
2018-11-25T06:27:42.609Z,16.80
2018-11-25T06:32:51.928Z,14.50
2018-11-25T06:38:01.288Z,14.33
2018-11-25T06:43:10.652Z,15.70
2018-11-25T06:48:20.045Z,13.83
2018-11-25T06:53:29.410Z,13.93
2018-11-25T06:58:39.077Z,14.23
2018-11-25T07:03:48.496Z,14.00
2018-11-25T07:08:57.822Z,13.07
2018-11-25T07:14:07.258Z,13.67
2018-11-25T07:19:16.618Z,14.83
2018-11-25T07:24:26.144Z,13.37
2018-11-25T07:29:35.533Z,13.60
2018-11-25T07:34:45.196Z,12.43
2018-11-25T07:39:54.720Z,12.93
2018-11-25T07:45:04.565Z,12.70
2018-11-25T07:50:14.324Z,13.10
2018-11-25T07:55:23.468Z,13.90
2018-11-25T08:00:32.764Z,12.43
2018-11-25T08:05:42.101Z,13.60
2018-11-25T08:10:51.615Z,11.93
2018-11-25T08:16:01.659Z,13.37
2018-11-25T08:21:11.109Z,14.43
2018-11-25T08:26:20.746Z,14.57
2018-11-25T08:31:30.349Z,14.37
2018-11-25T08:36:39.754Z,14.73
2018-11-25T08:41:49.086Z,15.87
2018-11-25T08:46:58.465Z,16.60
2018-11-25T08:52:07.918Z,15.87
2018-11-25T08:57:17.655Z,18.60
2018-11-25T09:02:27.098Z,17.30
2018-11-25T09:07:36.536Z,18.87
2018-11-25T09:12:47.331Z,18.47
2018-11-25T09:17:56.793Z,19.07
2018-11-25T09:23:06.324Z,18.00
2018-11-25T09:28:15.728Z,25.60
2018-11-25T09:33:25.346Z,21.23
2018-11-25T09:38:34.747Z,24.17
2018-11-25T09:43:44.328Z,22.77
2018-11-25T09:48:53.912Z,22.53
2018-11-25T09:54:03.517Z,24.63
2018-11-25T09:59:12.836Z,21.80
2018-11-25T10:04:22.484Z,21.97
2018-11-25T10:09:31.919Z,23.87
2018-11-25T10:14:35.786Z,23.83
2018-11-25T10:19:45.131Z,21.13
2018-11-25T10:24:54.814Z,21.60
2018-11-25T10:30:05.169Z,22.83
2018-11-25T10:35:14.690Z,20.73
2018-11-25T10:40:24.951Z,27.07
2018-11-25T10:45:34.753Z,24.17
2018-11-25T10:50:50.958Z,24.50
2018-11-25T10:55:54.157Z,24.30
2018-11-25T11:01:08.970Z,23.00
2018-11-25T11:06:24.057Z,22.60
2018-11-25T11:11:33.702Z,23.20
2018-11-25T11:16:43.293Z,22.23
2018-11-25T11:21:52.813Z,21.87
2018-11-25T11:27:02.177Z,21.87
2018-11-25T11:32:11.605Z,24.07
2018-11-25T11:37:20.916Z,22.93
2018-11-25T11:42:30.253Z,23.57
2018-11-25T11:47:39.652Z,27.47
2018-11-25T11:52:49.024Z,23.30
2018-11-25T11:57:58.446Z,26.00
2018-11-25T12:03:08.874Z,24.23
2018-11-25T12:08:18.325Z,24.33
2018-11-25T12:13:27.657Z,23.10
2018-11-25T12:18:37.001Z,22.30
2018-11-25T12:23:46.505Z,22.50
2018-11-25T12:28:55.887Z,21.60
2018-11-25T12:34:05.445Z,20.73
2018-11-25T12:39:14.825Z,20.93
2018-11-25T12:44:29.161Z,19.83
2018-11-25T12:49:34.069Z,19.93
2018-11-25T12:54:43.502Z,18.57
2018-11-25T12:59:53.071Z,21.07
2018-11-25T13:05:02.412Z,20.80
2018-11-25T13:10:11.779Z,20.13
2018-11-25T13:15:21.125Z,21.10
2018-11-25T13:20:30.818Z,21.40
2018-11-25T13:25:40.421Z,23.57
2018-11-25T13:30:49.769Z,23.67
2018-11-25T13:35:59.218Z,23.43
2018-11-25T13:41:08.518Z,21.93
2018-11-25T13:46:17.929Z,24.60
2018-11-25T13:51:27.494Z,24.13
2018-11-25T13:56:37.092Z,23.03
2018-11-25T14:01:46.672Z,22.13
2018-11-25T14:06:55.977Z,20.77
2018-11-25T14:12:05.504Z,23.80
2018-11-25T14:17:14.930Z,23.50
2018-11-25T14:22:24.466Z,23.07
2018-11-25T14:27:34.120Z,21.90
2018-11-25T14:32:43.514Z,22.97
2018-11-25T14:37:53.157Z,22.97
2018-11-25T14:43:02.538Z,25.47
2018-11-25T14:48:11.911Z,26.10
2018-11-25T14:53:21.530Z,26.17
2018-11-25T14:58:30.875Z,25.77
2018-11-25T15:03:40.442Z,26.07
2018-11-25T15:08:50.114Z,26.10
2018-11-25T15:14:00.028Z,26.53
2018-11-25T15:19:09.511Z,26.07
2018-11-25T15:24:18.872Z,28.07
2018-11-25T15:29:28.494Z,25.20
2018-11-25T15:34:37.964Z,25.93
2018-11-25T15:39:47.416Z,26.17
2018-11-25T15:44:56.955Z,25.87
2018-11-25T15:50:15.138Z,27.87
2018-11-25T15:55:24.533Z,25.30
2018-11-25T16:00:33.914Z,22.73
2018-11-25T16:05:46.542Z,26.50
2018-11-25T16:10:55.995Z,24.63
2018-11-25T16:16:05.581Z,24.33
2018-11-25T16:21:15.063Z,22.73
2018-11-25T16:26:26.956Z,22.27
2018-11-25T16:31:36.407Z,23.83
2018-11-25T16:36:45.880Z,21.20
2018-11-25T16:41:55.322Z,22.17
2018-11-25T16:47:04.687Z,24.47
2018-11-25T16:52:14.087Z,23.47
2018-11-25T16:57:23.426Z,24.07
2018-11-25T17:02:32.740Z,26.77
2018-11-25T17:07:42.552Z,23.53
2018-11-25T17:12:51.885Z,23.97
2018-11-25T17:18:01.599Z,25.10
2018-11-25T17:23:11.254Z,25.17
2018-11-25T17:28:20.835Z,24.93
2018-11-25T17:33:30.173Z,27.77
2018-11-25T17:38:39.545Z,24.80
2018-11-25T17:43:49.136Z,24.13
2018-11-25T17:48:58.575Z,24.23
2018-11-25T17:54:08.103Z,24.17
2018-11-25T17:59:17.623Z,21.90
2018-11-25T18:04:27.029Z,22.90
2018-11-25T18:09:36.394Z,21.17
2018-11-25T18:14:45.745Z,22.90
2018-11-25T18:19:55.281Z,23.90
2018-11-25T18:25:04.876Z,22.20
2018-11-25T18:30:15.939Z,20.67
2018-11-25T18:35:25.276Z,22.70
2018-11-25T18:40:34.671Z,21.93
2018-11-25T18:45:44.107Z,22.37
2018-11-25T18:50:53.696Z,21.30
2018-11-25T18:56:03.032Z,21.97
2018-11-25T19:01:32.877Z,22.20
2018-11-25T19:06:43.338Z,22.27
2018-11-25T19:11:52.690Z,23.57
2018-11-25T19:16:56.610Z,26.10
2018-11-25T19:22:06.186Z,23.30
2018-11-25T19:27:15.885Z,25.67
2018-11-25T19:32:25.316Z,26.63
2018-11-25T19:37:34.810Z,24.17
2018-11-25T19:42:44.518Z,24.87
2018-11-25T19:47:48.618Z,26.37
2018-11-25T19:52:58.105Z,27.57
2018-11-25T19:58:07.794Z,27.30
2018-11-25T20:03:17.207Z,26.80
2018-11-25T20:08:26.825Z,22.73
2018-11-25T20:13:36.399Z,24.37
2018-11-25T20:18:45.930Z,24.63
2018-11-25T20:23:55.341Z,25.27
2018-11-25T20:29:05.296Z,25.67
2018-11-25T20:34:14.828Z,24.60
2018-11-25T20:39:30.627Z,24.73
2018-11-25T20:44:40.488Z,25.97
2018-11-25T20:49:50.194Z,24.40
2018-11-25T20:54:59.820Z,27.77
2018-11-25T21:00:17.439Z,28.27
2018-11-25T21:05:26.965Z,26.30
2018-11-25T21:10:37.501Z,24.33
2018-11-25T21:15:47.048Z,23.47
2018-11-25T21:20:56.612Z,28.43
2018-11-25T21:26:06.240Z,29.67
2018-11-25T21:31:16.901Z,29.90
2018-11-25T21:36:26.326Z,25.97
2018-11-25T21:41:35.846Z,26.57
2018-11-25T21:46:45.561Z,27.57
2018-11-25T21:51:55.042Z,31.30
2018-11-25T21:57:04.470Z,32.33
2018-11-25T22:02:14.080Z,30.67
2018-11-25T22:07:23.533Z,27.60
2018-11-25T22:12:32.925Z,29.83
2018-11-25T22:17:42.630Z,25.80
2018-11-25T22:22:52.382Z,31.83
2018-11-25T22:28:01.844Z,31.30
2018-11-25T22:33:11.504Z,26.33
2018-11-25T22:38:21.129Z,30.27
2018-11-25T22:43:30.500Z,28.67
2018-11-25T22:48:40.193Z,28.60
2018-11-25T22:53:49.780Z,28.60
2018-11-25T22:58:59.084Z,29.20
2018-11-25T23:04:19.897Z,28.07
2018-11-25T23:09:29.565Z,28.97
2018-11-25T23:14:39.013Z,27.67
2018-11-25T23:19:48.414Z,26.70
2018-11-25T23:24:58.045Z,30.80
2018-11-25T23:30:08.145Z,28.80
2018-11-25T23:35:21.021Z,29.53
2018-11-25T23:40:30.445Z,30.03
2018-11-25T23:45:39.828Z,26.93
2018-11-25T23:50:49.351Z,29.17
2018-11-25T23:55:56.151Z,26.40
